Time;durP1;ratioP1;P1;durP2;ratioP2;P2;SDS_P1;SDS_P2;PMS_P1;PMS_P2;Temp;Humidity;BMP_temperature;BMP_pressure;BME280_temperature;BME280_humidity;BME280_pressure;Samples;Min_cycle;Max_cycle;Signal;HPM_P1;HPM_P2
2023/01/29 00:01:41;;;;;;;;;;;28.00;82.40;;;;;;6306063;22;19907;-70
2023/01/29 00:04:08;;;;;;;;;;;28.20;82.70;;;;;;6305508;22;19911;-71
2023/01/29 00:06:34;;;;;;;;;;;28.30;82.10;;;;;;6306411;22;19942;-70
2023/01/29 00:09:01;;;;;;;;;;;28.30;80.40;;;;;;6305927;22;20319;-70
2023/01/29 00:11:28;;;;;;;;;;;28.30;80.80;;;;;;6305373;22;19964;-70
2023/01/29 00:13:55;;;;;;;;;;;28.30;81.20;;;;;;6306492;22;19903;-70
2023/01/29 00:16:22;;;;;;;;;;;28.40;80.30;;;;;;6305548;22;19903;-71
2023/01/29 00:18:49;;;;;;;;;;;28.50;80.60;;;;;;6279810;22;20261;-71
2023/01/29 00:21:20;;;;;;;;;;;28.60;80.50;;;;;;6307855;22;19968;-71
2023/01/29 00:23:47;;;;;;;;;;;28.70;80.60;;;;;;6307291;22;19903;-71
2023/01/29 00:26:14;;;;;;;;;;;28.80;80.30;;;;;;6307321;22;19982;-71
2023/01/29 00:28:41;;;;;;;;;;;28.80;79.40;;;;;;6280559;22;19926;-71
2023/01/29 00:31:08;;;;;;;;;;;28.80;79.70;;;;;;6307687;22;19907;-71
2023/01/29 00:33:35;;;;;;;;;;;28.80;79.30;;;;;;6307455;22;19961;-71
2023/01/29 00:36:04;;;;;;;;;;;28.80;79.50;;;;;;6281101;22;19993;-71
2023/01/29 00:38:32;;;;;;;;;;;28.80;79.90;;;;;;6307387;22;19910;-71
2023/01/29 00:46:34;;;;;;;;;;;28.90;78.30;;;;;;6307995;22;20285;-71
2023/01/29 00:49:01;;;;;;;;;;;29.00;79.30;;;;;;6307439;22;20275;-71
2023/01/29 00:51:27;;;;;;;;;;;29.00;78.90;;;;;;6308142;22;20253;-71
2023/01/29 00:53:57;;;;;;;;;;;29.00;79.60;;;;;;6307191;22;19908;-71
2023/01/29 00:56:27;;;;;;;;;;;29.10;80.00;;;;;;6308403;22;19910;-71
2023/01/29 00:58:53;;;;;;;;;;;29.10;79.80;;;;;;6280224;22;20246;-71
2023/01/29 01:03:04;;;;;;;;;;;29.10;79.60;;;;;;6307043;22;19957;-71
2023/01/29 01:04:07;;;;;;;;;;;29.00;79.00;;;;;;6307372;22;19911;-71
2023/01/29 01:06:33;;;;;;;;;;;29.10;79.50;;;;;;6307746;22;20302;-72
2023/01/29 01:11:45;;;;;;;;;;;29.10;79.90;;;;;;6307377;22;19967;-70
2023/01/29 01:14:11;;;;;;;;;;;29.10;79.50;;;;;;6307305;22;20310;-74
2023/01/29 01:16:38;;;;;;;;;;;29.10;79.40;;;;;;6307729;22;19960;-70
2023/01/29 01:19:05;;;;;;;;;;;29.00;79.30;;;;;;6307585;22;19925;-75
2023/01/29 01:21:32;;;;;;;;;;;29.00;78.70;;;;;;6303823;22;19914;-70
2023/01/29 01:23:58;;;;;;;;;;;29.00;79.40;;;;;;6303914;22;19993;-71
2023/01/29 01:26:25;;;;;;;;;;;28.90;79.00;;;;;;6304111;22;19911;-72
2023/01/29 01:28:52;;;;;;;;;;;29.00;79.50;;;;;;6301639;22;19907;-70
2023/01/29 01:31:19;;;;;;;;;;;28.90;79.30;;;;;;6304176;22;19906;-71
2023/01/29 01:33:45;;;;;;;;;;;28.90;79.10;;;;;;6303766;22;20420;-70
2023/01/29 01:36:12;;;;;;;;;;;28.90;79.20;;;;;;6304498;22;19979;-71
2023/01/29 01:38:43;;;;;;;;;;;28.90;80.20;;;;;;6304311;22;20590;-71
2023/01/29 01:41:13;;;;;;;;;;;29.10;79.30;;;;;;6303762;22;19915;-74
2023/01/29 01:43:47;;;;;;;;;;;29.20;78.80;;;;;;6303440;22;19918;-72
2023/01/29 01:46:14;;;;;;;;;;;29.20;77.70;;;;;;6304461;22;20297;-73
2023/01/29 01:48:41;;;;;;;;;;;29.30;78.40;;;;;;6304648;22;19910;-73
2023/01/29 01:51:07;;;;;;;;;;;29.20;78.20;;;;;;6276873;22;19906;-73
2023/01/29 01:53:37;;;;;;;;;;;29.10;78.80;;;;;;6303838;22;19942;-71
2023/01/29 01:56:09;;;;;;;;;;;29.00;77.80;;;;;;6276459;22;20599;-71
2023/01/29 12:32:48;;;;;;;;;;;25.40;81.50;;;;;;6305253;22;20249;-70
2023/01/29 12:35:21;;;;;;;;;;;25.30;81.50;;;;;;6307482;22;19938;-69
2023/01/29 12:37:50;;;;;;;;;;;25.30;81.20;;;;;;6307685;22;19909;-69
2023/01/29 12:40:17;;;;;;;;;;;25.20;81.30;;;;;;6307549;22;19899;-69
2023/01/29 12:42:52;;;;;;;;;;;25.20;81.50;;;;;;6280314;22;19918;-70
2023/01/29 12:45:19;;;;;;;;;;;25.20;81.70;;;;;;6280377;22;19903;-70
2023/01/29 12:47:54;;;;;;;;;;;25.20;81.70;;;;;;6280761;22;19930;-70
2023/01/29 12:50:24;;;;;;;;;;;25.20;81.90;;;;;;6280463;22;20222;-70
2023/01/29 12:52:50;;;;;;;;;;;25.20;81.70;;;;;;6307618;22;19902;-70
2023/01/29 12:55:21;;;;;;;;;;;25.20;81.70;;;;;;6307642;22;19914;-70
2023/01/29 12:57:50;;;;;;;;;;;25.10;81.50;;;;;;6280561;22;19910;-70
2023/01/29 13:00:26;;;;;;;;;;;25.00;81.70;;;;;;6281194;22;20302;-70
2023/01/29 13:03:11;;;;;;;;;;;25.10;81.80;;;;;;6307525;22;19911;-70
2023/01/29 13:05:39;;;;;;;;;;;25.00;81.60;;;;;;6307192;22;19907;-70
2023/01/29 13:08:10;;;;;;;;;;;25.10;81.90;;;;;;6281067;22;19903;-70
2023/01/29 13:10:37;;;;;;;;;;;25.10;81.80;;;;;;6280315;22;20333;-70
2023/01/29 13:13:05;;;;;;;;;;;25.10;81.70;;;;;;6279958;22;19990;-71
2023/01/29 13:15:38;;;;;;;;;;;25.10;81.60;;;;;;6280728;22;19911;-70
2023/01/29 13:18:08;;;;;;;;;;;25.10;81.50;;;;;;6279808;22;19986;-71
2023/01/29 13:20:35;;;;;;;;;;;25.10;81.50;;;;;;6307706;22;20380;-71
2023/01/29 13:23:04;;;;;;;;;;;25.10;81.50;;;;;;6307541;22;19918;-71
2023/01/29 13:25:30;;;;;;;;;;;25.10;81.20;;;;;;6280392;22;19949;-71
2023/01/29 13:27:57;;;;;;;;;;;25.10;81.50;;;;;;6280470;22;19903;-71
2023/01/29 13:30:27;;;;;;;;;;;25.10;81.40;;;;;;6280810;22;19903;-71
2023/01/29 13:32:54;;;;;;;;;;;25.10;81.40;;;;;;6307256;22;20314;-71
2023/01/29 13:35:21;;;;;;;;;;;25.10;81.40;;;;;;6280032;22;19903;-71
2023/01/29 13:37:48;;;;;;;;;;;25.10;81.20;;;;;;6307664;22;19906;-70
2023/01/29 13:40:23;;;;;;;;;;;25.10;81.10;;;;;;6307117;22;20384;-70
2023/01/29 13:42:51;;;;;;;;;;;25.10;81.30;;;;;;6307406;22;20326;-71
2023/01/29 13:45:26;;;;;;;;;;;25.10;81.30;;;;;;6307563;22;19914;-71
2023/01/29 13:47:53;;;;;;;;;;;25.00;81.10;;;;;;6307359;22;19952;-69
2023/01/29 13:50:30;;;;;;;;;;;25.00;81.00;;;;;;6280701;22;19907;-70
2023/01/29 13:52:57;;;;;;;;;;;25.00;80.80;;;;;;6280004;22;19986;-71
2023/01/29 13:55:33;;;;;;;;;;;25.00;80.30;;;;;;6307186;22;19937;-70
2023/01/29 13:58:03;;;;;;;;;;;25.00;79.90;;;;;;6307347;22;20275;-71
2023/01/29 14:00:33;;;;;;;;;;;25.00;79.90;;;;;;6279964;22;19903;-71
2023/01/29 14:03:00;;;;;;;;;;;25.00;79.70;;;;;;6306606;22;19911;-71
2023/01/29 14:05:29;;;;;;;;;;;24.90;79.90;;;;;;6307541;22;19926;-71
2023/01/29 14:07:58;;;;;;;;;;;25.00;80.30;;;;;;6307077;22;20373;-71
2023/01/29 14:10:25;;;;;;;;;;;25.00;81.20;;;;;;6307313;22;19907;-72
2023/01/29 14:12:52;;;;;;;;;;;24.90;81.50;;;;;;6307250;22;19902;-71
2023/01/29 14:15:23;;;;;;;;;;;24.80;82.20;;;;;;6306537;22;19910;-70
2023/01/29 14:17:53;;;;;;;;;;;24.80;82.50;;;;;;6279751;22;19909;-70
2023/01/29 14:20:22;;;;;;;;;;;24.80;83.30;;;;;;6307566;22;19993;-71
2023/01/29 14:22:55;;;;;;;;;;;24.70;83.60;;;;;;6306150;22;20009;-71
2023/01/29 14:25:23;;;;;;;;;;;24.70;83.60;;;;;;6279793;22;19907;-70
2023/01/29 14:27:50;;;;;;;;;;;24.60;84.20;;;;;;6307131;22;20318;-70
2023/01/29 14:30:17;;;;;;;;;;;24.50;84.30;;;;;;6307179;22;19907;-70
2023/01/29 14:32:47;;;;;;;;;;;24.50;84.60;;;;;;6279577;22;20457;-71
2023/01/29 14:35:20;;;;;;;;;;;24.40;84.80;;;;;;6306939;22;19960;-71
2023/01/29 14:37:47;;;;;;;;;;;24.40;85.40;;;;;;6306649;22;19906;-71
2023/01/29 14:40:17;;;;;;;;;;;24.30;85.50;;;;;;6306698;22;19907;-71
2023/01/29 14:42:44;;;;;;;;;;;24.30;85.80;;;;;;6306840;22;19969;-71
2023/01/29 14:45:28;;;;;;;;;;;24.30;86.00;;;;;;6306595;22;19981;-72
2023/01/29 14:47:55;;;;;;;;;;;24.20;86.20;;;;;;6306557;22;19910;-71
2023/01/29 14:50:28;;;;;;;;;;;24.30;86.70;;;;;;6306817;22;19913;-72
2023/01/29 14:52:58;;;;;;;;;;;24.20;87.10;;;;;;6306279;22;19903;-72
2023/01/29 14:55:26;;;;;;;;;;;24.20;87.50;;;;;;6279474;22;19903;-71
2023/01/29 14:57:53;;;;;;;;;;;24.10;87.30;;;;;;6306788;22;20325;-71
2023/01/29 15:00:26;;;;;;;;;;;24.10;87.50;;;;;;6306335;22;20234;-71
2023/01/29 15:02:56;;;;;;;;;;;24.00;87.40;;;;;;6306928;22;19957;-71
2023/01/29 15:05:27;;;;;;;;;;;24.00;87.60;;;;;;6280427;22;19911;-71
2023/01/29 15:08:08;;;;;;;;;;;24.00;87.40;;;;;;6279249;22;20272;-71
2023/01/29 15:11:38;;;;;;;;;;;23.90;87.60;;;;;;6279712;22;19903;-71
2023/01/29 15:14:22;;;;;;;;;;;23.90;87.90;;;;;;6267699;22;19903;-71
2023/01/29 15:16:49;;;;;;;;;;;23.90;87.90;;;;;;6152179;23;19909;-71
2023/01/29 15:19:24;;;;;;;;;;;23.90;87.70;;;;;;6283140;22;20390;-71
2023/01/29 15:22:03;;;;;;;;;;;23.90;87.60;;;;;;6306068;22;19911;-71
2023/01/29 15:24:29;;;;;;;;;;;23.80;87.60;;;;;;6306386;22;19907;-71
2023/01/29 15:26:56;;;;;;;;;;;23.80;87.50;;;;;;6278687;22;19907;-71
2023/01/29 15:29:24;;;;;;;;;;;23.80;87.80;;;;;;6278988;22;19907;-71
2023/01/29 15:31:50;;;;;;;;;;;23.80;87.20;;;;;;6279470;22;19903;-71
2023/01/29 15:34:17;;;;;;;;;;;23.80;87.90;;;;;;6305847;22;19994;-71
2023/01/29 15:36:43;;;;;;;;;;;23.80;87.80;;;;;;6306403;22;19903;-72
2023/01/29 15:39:23;;;;;;;;;;;23.70;88.10;;;;;;6306272;22;19929;-72
2023/01/29 15:41:50;;;;;;;;;;;23.80;88.70;;;;;;6304993;22;19956;-71
2023/01/29 15:44:21;;;;;;;;;;;23.70;88.70;;;;;;6279365;22;20369;-72
2023/01/29 15:46:57;;;;;;;;;;;23.60;88.90;;;;;;6279449;22;19911;-72
2023/01/29 15:49:27;;;;;;;;;;;23.60;88.90;;;;;;6278408;22;19975;-72
2023/01/29 15:51:57;;;;;;;;;;;23.50;89.10;;;;;;6278527;22;20246;-71
2023/01/29 15:54:24;;;;;;;;;;;23.30;89.70;;;;;;6306735;22;19903;-70
2023/01/29 15:56:51;;;;;;;;;;;23.30;90.30;;;;;;6278962;22;19993;-71
2023/01/29 15:59:22;;;;;;;;;;;23.30;90.50;;;;;;6306245;22;20365;-71
2023/01/29 16:01:48;;;;;;;;;;;23.20;90.40;;;;;;6306146;22;19918;-71
2023/01/29 16:04:27;;;;;;;;;;;23.30;90.90;;;;;;6305845;22;20310;-71
2023/01/29 16:06:54;;;;;;;;;;;23.30;91.30;;;;;;6279614;22;20372;-71
2023/01/29 16:09:22;;;;;;;;;;;23.20;91.10;;;;;;6277918;22;19903;-71
2023/01/29 16:11:49;;;;;;;;;;;23.10;91.00;;;;;;6278932;22;19914;-71
2023/01/29 16:14:17;;;;;;;;;;;23.20;91.40;;;;;;6278770;22;19903;-71
2023/01/29 16:16:44;;;;;;;;;;;23.20;91.60;;;;;;6279157;22;19903;-71
2023/01/29 16:19:21;;;;;;;;;;;23.20;91.50;;;;;;6305529;22;19990;-71
2023/01/29 16:21:50;;;;;;;;;;;23.20;91.70;;;;;;6279342;22;19915;-71
2023/01/29 16:24:21;;;;;;;;;;;23.00;91.50;;;;;;6305241;22;19931;-71
2023/01/29 16:26:49;;;;;;;;;;;23.10;91.80;;;;;;6279606;22;20310;-71
2023/01/29 16:29:16;;;;;;;;;;;23.10;92.00;;;;;;6306234;22;20036;-70
2023/01/29 16:31:43;;;;;;;;;;;23.10;91.80;;;;;;6305474;22;19907;-70
2023/01/29 16:34:23;;;;;;;;;;;22.90;91.90;;;;;;6278771;22;19911;-71
2023/01/29 16:36:50;;;;;;;;;;;22.90;91.70;;;;;;6305863;22;19948;-70
2023/01/29 16:39:18;;;;;;;;;;;23.00;92.00;;;;;;6305572;22;20175;-71
2023/01/29 16:41:44;;;;;;;;;;;22.90;91.70;;;;;;6278628;22;20005;-70
2023/01/29 16:44:20;;;;;;;;;;;22.90;91.60;;;;;;6306076;22;19978;-70
2023/01/29 16:46:47;;;;;;;;;;;23.00;91.70;;;;;;6305190;22;19903;-70
2023/01/29 16:49:36;;;;;;;;;;;22.80;91.60;;;;;;6278433;22;20370;-70
2023/01/29 16:52:21;;;;;;;;;;;22.80;91.20;;;;;;6305234;22;19903;-70
2023/01/29 16:54:48;;;;;;;;;;;22.80;91.40;;;;;;6305620;22;20032;-71
2023/01/29 16:57:19;;;;;;;;;;;22.90;91.30;;;;;;6278253;22;19907;-72
2023/01/29 16:59:45;;;;;;;;;;;22.80;91.40;;;;;;6279290;22;20262;-71
2023/01/29 17:02:32;;;;;;;;;;;22.80;91.60;;;;;;6306885;22;20390;-72
2023/01/29 17:05:03;;;;;;;;;;;23.00;91.60;;;;;;6280188;22;20392;-71
2023/01/29 17:07:30;;;;;;;;;;;23.10;91.70;;;;;;6281112;22;19907;-71
2023/01/29 17:09:58;;;;;;;;;;;23.10;91.80;;;;;;6307122;22;19996;-71
2023/01/29 17:12:25;;;;;;;;;;;23.20;91.80;;;;;;6280575;22;19903;-72
2023/01/29 17:14:53;;;;;;;;;;;23.10;91.30;;;;;;6307167;22;19910;-71
2023/01/29 17:17:20;;;;;;;;;;;23.10;91.40;;;;;;6307043;22;19982;-71
2023/01/29 17:19:46;;;;;;;;;;;23.20;91.50;;;;;;6308034;22;20277;-71
2023/01/29 17:22:13;;;;;;;;;;;23.20;91.60;;;;;;6307136;22;19911;-71
2023/01/29 17:24:41;;;;;;;;;;;23.20;91.60;;;;;;6307383;22;19981;-71
2023/01/29 17:27:09;;;;;;;;;;;23.10;91.20;;;;;;6307785;22;19958;-71
2023/01/29 17:29:36;;;;;;;;;;;23.10;91.30;;;;;;6278958;22;19948;-71
2023/01/29 17:32:03;;;;;;;;;;;23.10;91.40;;;;;;6279387;22;20373;-72
2023/01/29 17:34:29;;;;;;;;;;;23.10;91.10;;;;;;6307818;22;19938;-71
2023/01/29 17:36:56;;;;;;;;;;;23.10;91.30;;;;;;6305806;22;19952;-69
2023/01/29 17:39:23;;;;;;;;;;;23.10;91.20;;;;;;6306254;22;19903;-70
2023/01/29 17:41:50;;;;;;;;;;;23.10;91.00;;;;;;6307286;22;20275;-70
2023/01/29 17:44:17;;;;;;;;;;;23.10;91.10;;;;;;6279601;22;19918;-70
2023/01/29 17:46:45;;;;;;;;;;;23.20;91.40;;;;;;6307292;22;19903;-69
2023/01/29 17:49:21;;;;;;;;;;;23.20;91.30;;;;;;6307909;22;19930;-70
2023/01/29 17:51:48;;;;;;;;;;;23.20;91.30;;;;;;6306938;22;19907;-70
2023/01/29 17:54:15;;;;;;;;;;;23.20;91.20;;;;;;6307084;22;19906;-69
2023/01/29 17:56:41;;;;;;;;;;;23.20;90.90;;;;;;6308248;22;19914;-69
2023/01/29 17:59:12;;;;;;;;;;;23.20;91.00;;;;;;6304900;22;19903;-70
2023/01/29 18:01:38;;;;;;;;;;;23.20;90.80;;;;;;6305641;22;19939;-70
2023/01/29 18:04:05;;;;;;;;;;;23.30;90.60;;;;;;6305780;22;20385;-70
2023/01/29 22:33:49;;;;;;;;;;;23.10;92.20;;;;;;6300720;22;19926;-67
2023/01/29 22:36:15;;;;;;;;;;;23.10;91.50;;;;;;6306193;22;19911;-68
2023/01/29 22:38:42;;;;;;;;;;;23.20;91.40;;;;;;6305253;22;19903;-70
2023/01/29 22:41:09;;;;;;;;;;;23.30;91.60;;;;;;6305394;22;20268;-70
2023/01/29 22:43:35;;;;;;;;;;;23.30;91.00;;;;;;6277102;22;19915;-69
2023/01/29 22:46:08;;;;;;;;;;;23.30;91.20;;;;;;6304970;22;19910;-69
2023/01/29 22:48:35;;;;;;;;;;;23.30;91.50;;;;;;6305613;22;19907;-69
2023/01/29 22:51:11;;;;;;;;;;;23.40;91.30;;;;;;6305625;22;19909;-69
2023/01/29 22:53:56;;;;;;;;;;;23.50;91.30;;;;;;6305965;22;19907;-69
2023/01/29 22:56:24;;;;;;;;;;;23.50;90.20;;;;;;6306893;22;20277;-70
2023/01/29 22:58:54;;;;;;;;;;;23.40;90.50;;;;;;6305605;22;19903;-69
2023/01/29 23:01:22;;;;;;;;;;;23.40;90.10;;;;;;6305643;22;19907;-69
2023/01/29 23:03:49;;;;;;;;;;;23.40;89.80;;;;;;6306249;22;19911;-69
2023/01/29 23:06:16;;;;;;;;;;;23.40;89.90;;;;;;6305867;22;19907;-70
2023/01/29 23:08:42;;;;;;;;;;;23.40;90.00;;;;;;6306430;22;19902;-70
2023/01/29 23:11:12;;;;;;;;;;;23.40;89.80;;;;;;6278384;22;19914;-70
2023/01/29 23:13:48;;;;;;;;;;;23.40;89.70;;;;;;6305567;22;19905;-70
2023/01/29 23:16:15;;;;;;;;;;;23.40;89.40;;;;;;6306646;22;19907;-70
2023/01/29 23:18:42;;;;;;;;;;;23.40;89.10;;;;;;6305947;22;20314;-70
2023/01/29 23:21:09;;;;;;;;;;;23.40;88.00;;;;;;6306106;22;20333;-70
2023/01/29 23:23:36;;;;;;;;;;;23.40;89.00;;;;;;6304788;22;19921;-71
2023/01/29 23:28:47;;;;;;;;;;;23.50;89.50;;;;;;6305973;22;19909;-71
2023/01/29 23:31:14;;;;;;;;;;;23.50;88.80;;;;;;6305059;22;19981;-69
2023/01/29 23:55:05;;;;;;;;;;;23.80;89.20;;;;;;6274104;22;20410;-70
2023/01/29 23:57:31;;;;;;;;;;;23.80;88.40;;;;;;6275224;22;19931;-70
2023/01/29 23:59:58;;;;;;;;;;;23.80;87.20;;;;;;6274827;22;19926;-70
